sensor_id;sensor_type;location;lat;lon;timestamp;P1;durP1;ratioP1;P2;durP2;ratioP2
31746;SDS011;18319;48.974;8.462;2023-03-11T00:01:16;1.10;;;1.07;;
31746;SDS011;18319;48.974;8.462;2023-03-11T00:03:43;3.13;;;0.97;;
31746;SDS011;18319;48.974;8.462;2023-03-11T00:06:09;0.60;;;0.60;;
31746;SDS011;18319;48.974;8.462;2023-03-11T00:08:36;0.70;;;0.70;;
31746;SDS011;18319;48.974;8.462;2023-03-11T00:11:03;0.70;;;0.70;;
31746;SDS011;18319;48.974;8.462;2023-03-11T00:13:30;0.73;;;0.70;;
31746;SDS011;18319;48.974;8.462;2023-03-11T00:15:59;1.10;;;0.80;;
31746;SDS011;18319;48.974;8.462;2023-03-11T00:18:26;0.90;;;0.90;;
31746;SDS011;18319;48.974;8.462;2023-03-11T00:20:55;1.47;;;0.70;;
31746;SDS011;18319;48.974;8.462;2023-03-11T00:23:23;0.77;;;0.73;;
31746;SDS011;18319;48.974;8.462;2023-03-11T00:25:50;1.43;;;1.00;;
31746;SDS011;18319;48.974;8.462;2023-03-11T00:28:17;1.83;;;1.00;;
31746;SDS011;18319;48.974;8.462;2023-03-11T00:30:46;1.17;;;0.90;;
31746;SDS011;18319;48.974;8.462;2023-03-11T00:33:14;1.50;;;0.90;;
31746;SDS011;18319;48.974;8.462;2023-03-11T00:35:41;1.17;;;1.10;;
31746;SDS011;18319;48.974;8.462;2023-03-11T00:38:10;1.13;;;1.00;;
31746;SDS011;18319;48.974;8.462;2023-03-11T00:40:39;1.67;;;0.70;;
31746;SDS011;18319;48.974;8.462;2023-03-11T00:45:35;0.90;;;0.90;;
31746;SDS011;18319;48.974;8.462;2023-03-11T00:48:03;1.20;;;1.10;;
31746;SDS011;18319;48.974;8.462;2023-03-11T00:50:32;1.70;;;1.20;;
31746;SDS011;18319;48.974;8.462;2023-03-11T00:53:00;1.07;;;1.07;;
31746;SDS011;18319;48.974;8.462;2023-03-11T00:55:29;1.13;;;0.80;;
31746;SDS011;18319;48.974;8.462;2023-03-11T00:57:57;1.47;;;1.37;;
31746;SDS011;18319;48.974;8.462;2023-03-11T01:00:26;1.83;;;1.73;;
31746;SDS011;18319;48.974;8.462;2023-03-11T01:02:54;1.10;;;1.10;;
31746;SDS011;18319;48.974;8.462;2023-03-11T01:05:22;2.77;;;1.10;;
31746;SDS011;18319;48.974;8.462;2023-03-11T01:07:52;1.30;;;1.20;;
31746;SDS011;18319;48.974;8.462;2023-03-11T01:10:19;2.53;;;0.93;;
31746;SDS011;18319;48.974;8.462;2023-03-11T01:12:46;2.57;;;1.00;;
31746;SDS011;18319;48.974;8.462;2023-03-11T01:15:15;2.00;;;0.80;;
31746;SDS011;18319;48.974;8.462;2023-03-11T01:17:45;2.70;;;1.10;;
31746;SDS011;18319;48.974;8.462;2023-03-11T01:20:13;1.10;;;1.10;;
31746;SDS011;18319;48.974;8.462;2023-03-11T01:22:40;2.40;;;1.07;;
31746;SDS011;18319;48.974;8.462;2023-03-11T01:25:09;1.07;;;0.93;;
31746;SDS011;18319;48.974;8.462;2023-03-11T01:27:37;1.00;;;0.73;;
31746;SDS011;18319;48.974;8.462;2023-03-11T01:30:04;1.23;;;1.10;;
31746;SDS011;18319;48.974;8.462;2023-03-11T01:32:32;1.10;;;0.80;;
31746;SDS011;18319;48.974;8.462;2023-03-11T01:34:59;2.00;;;0.70;;
31746;SDS011;18319;48.974;8.462;2023-03-11T01:37:25;2.60;;;1.00;;
31746;SDS011;18319;48.974;8.462;2023-03-11T01:39:52;0.77;;;0.77;;
31746;SDS011;18319;48.974;8.462;2023-03-11T01:42:20;1.83;;;1.10;;
31746;SDS011;18319;48.974;8.462;2023-03-11T01:44:47;3.93;;;0.70;;
31746;SDS011;18319;48.974;8.462;2023-03-11T01:47:33;1.63;;;0.60;;
31746;SDS011;18319;48.974;8.462;2023-03-11T01:50:03;0.60;;;0.50;;
31746;SDS011;18319;48.974;8.462;2023-03-11T01:52:31;0.60;;;0.60;;
31746;SDS011;18319;48.974;8.462;2023-03-11T01:54:58;0.53;;;0.53;;
31746;SDS011;18319;48.974;8.462;2023-03-11T01:57:26;0.47;;;0.47;;
31746;SDS011;18319;48.974;8.462;2023-03-11T01:59:55;0.77;;;0.60;;
31746;SDS011;18319;48.974;8.462;2023-03-11T02:02:24;3.63;;;0.90;;
31746;SDS011;18319;48.974;8.462;2023-03-11T02:04:56;0.73;;;0.50;;
31746;SDS011;18319;48.974;8.462;2023-03-11T02:07:24;1.63;;;0.60;;
31746;SDS011;18319;48.974;8.462;2023-03-11T02:09:51;0.73;;;0.53;;
31746;SDS011;18319;48.974;8.462;2023-03-11T02:12:17;0.57;;;0.57;;
31746;SDS011;18319;48.974;8.462;2023-03-11T02:14:46;2.13;;;0.70;;
31746;SDS011;18319;48.974;8.462;2023-03-11T02:17:15;0.70;;;0.67;;
31746;SDS011;18319;48.974;8.462;2023-03-11T02:19:49;1.27;;;0.70;;
31746;SDS011;18319;48.974;8.462;2023-03-11T02:22:28;3.00;;;0.70;;
31746;SDS011;18319;48.974;8.462;2023-03-11T02:24:58;2.87;;;0.90;;
31746;SDS011;18319;48.974;8.462;2023-03-11T02:27:31;1.03;;;0.60;;
31746;SDS011;18319;48.974;8.462;2023-03-11T02:30:01;1.23;;;0.80;;
31746;SDS011;18319;48.974;8.462;2023-03-11T02:32:28;0.70;;;0.70;;
31746;SDS011;18319;48.974;8.462;2023-03-11T02:34:55;0.73;;;0.73;;
31746;SDS011;18319;48.974;8.462;2023-03-11T02:37:22;1.17;;;0.60;;
31746;SDS011;18319;48.974;8.462;2023-03-11T02:39:50;2.60;;;1.10;;
31746;SDS011;18319;48.974;8.462;2023-03-11T02:42:21;1.97;;;0.70;;
31746;SDS011;18319;48.974;8.462;2023-03-11T02:44:59;2.50;;;0.50;;
31746;SDS011;18319;48.974;8.462;2023-03-11T02:47:29;1.60;;;0.80;;
31746;SDS011;18319;48.974;8.462;2023-03-11T02:49:56;2.57;;;0.80;;
31746;SDS011;18319;48.974;8.462;2023-03-11T02:52:24;0.93;;;0.90;;
31746;SDS011;18319;48.974;8.462;2023-03-11T02:54:52;4.90;;;1.23;;
31746;SDS011;18319;48.974;8.462;2023-03-11T02:57:19;0.80;;;0.80;;
31746;SDS011;18319;48.974;8.462;2023-03-11T02:59:46;0.70;;;0.70;;
31746;SDS011;18319;48.974;8.462;2023-03-11T03:02:14;1.07;;;0.60;;
31746;SDS011;18319;48.974;8.462;2023-03-11T03:04:41;1.80;;;0.70;;
31746;SDS011;18319;48.974;8.462;2023-03-11T03:07:08;1.00;;;0.67;;
31746;SDS011;18319;48.974;8.462;2023-03-11T03:09:35;2.13;;;0.63;;
31746;SDS011;18319;48.974;8.462;2023-03-11T03:12:02;0.50;;;0.50;;
31746;SDS011;18319;48.974;8.462;2023-03-11T03:14:30;2.90;;;0.87;;
31746;SDS011;18319;48.974;8.462;2023-03-11T03:16:57;0.60;;;0.60;;
31746;SDS011;18319;48.974;8.462;2023-03-11T03:19:25;1.60;;;0.77;;
31746;SDS011;18319;48.974;8.462;2023-03-11T03:21:52;4.50;;;0.70;;
31746;SDS011;18319;48.974;8.462;2023-03-11T03:24:19;0.90;;;0.70;;
31746;SDS011;18319;48.974;8.462;2023-03-11T03:26:45;0.67;;;0.57;;
31746;SDS011;18319;48.974;8.462;2023-03-11T03:29:12;1.50;;;0.73;;
31746;SDS011;18319;48.974;8.462;2023-03-11T03:31:39;1.50;;;0.70;;
31746;SDS011;18319;48.974;8.462;2023-03-11T03:34:06;1.13;;;0.60;;
31746;SDS011;18319;48.974;8.462;2023-03-11T03:36:34;0.67;;;0.67;;
31746;SDS011;18319;48.974;8.462;2023-03-11T03:39:01;0.83;;;0.83;;
31746;SDS011;18319;48.974;8.462;2023-03-11T03:41:28;1.27;;;0.77;;
31746;SDS011;18319;48.974;8.462;2023-03-11T03:43:55;0.83;;;0.83;;
31746;SDS011;18319;48.974;8.462;2023-03-11T03:46:23;1.23;;;0.83;;
31746;SDS011;18319;48.974;8.462;2023-03-11T03:48:50;1.07;;;1.00;;
31746;SDS011;18319;48.974;8.462;2023-03-11T03:51:17;1.63;;;1.53;;
31746;SDS011;18319;48.974;8.462;2023-03-11T03:53:45;1.00;;;0.83;;
31746;SDS011;18319;48.974;8.462;2023-03-11T03:56:12;2.53;;;0.70;;
31746;SDS011;18319;48.974;8.462;2023-03-11T03:58:43;2.93;;;1.10;;
31746;SDS011;18319;48.974;8.462;2023-03-11T04:01:10;1.50;;;1.07;;
31746;SDS011;18319;48.974;8.462;2023-03-11T04:03:37;0.80;;;0.80;;
31746;SDS011;18319;48.974;8.462;2023-03-11T04:06:05;1.10;;;0.70;;
31746;SDS011;18319;48.974;8.462;2023-03-11T04:08:32;0.80;;;0.80;;
31746;SDS011;18319;48.974;8.462;2023-03-11T04:11:00;3.20;;;0.83;;
31746;SDS011;18319;48.974;8.462;2023-03-11T04:13:27;2.93;;;1.00;;
31746;SDS011;18319;48.974;8.462;2023-03-11T04:15:54;0.73;;;0.70;;
31746;SDS011;18319;48.974;8.462;2023-03-11T04:18:20;0.93;;;0.93;;
31746;SDS011;18319;48.974;8.462;2023-03-11T04:20:47;0.70;;;0.70;;
31746;SDS011;18319;48.974;8.462;2023-03-11T04:23:14;0.77;;;0.77;;
31746;SDS011;18319;48.974;8.462;2023-03-11T04:25:41;1.13;;;0.70;;
31746;SDS011;18319;48.974;8.462;2023-03-11T04:28:09;0.80;;;0.80;;
31746;SDS011;18319;48.974;8.462;2023-03-11T04:30:36;2.53;;;1.00;;
31746;SDS011;18319;48.974;8.462;2023-03-11T04:33:04;2.43;;;0.80;;
31746;SDS011;18319;48.974;8.462;2023-03-11T04:35:31;1.40;;;0.60;;
31746;SDS011;18319;48.974;8.462;2023-03-11T04:37:58;0.50;;;0.50;;
31746;SDS011;18319;48.974;8.462;2023-03-11T04:40:25;1.10;;;0.80;;
31746;SDS011;18319;48.974;8.462;2023-03-11T04:42:52;0.80;;;0.80;;
31746;SDS011;18319;48.974;8.462;2023-03-11T04:45:20;2.57;;;1.03;;
31746;SDS011;18319;48.974;8.462;2023-03-11T04:47:48;1.13;;;0.80;;
31746;SDS011;18319;48.974;8.462;2023-03-11T04:50:15;4.17;;;1.00;;
31746;SDS011;18319;48.974;8.462;2023-03-11T04:52:43;1.77;;;0.83;;
31746;SDS011;18319;48.974;8.462;2023-03-11T04:55:10;0.80;;;0.80;;
31746;SDS011;18319;48.974;8.462;2023-03-11T04:57:37;2.23;;;0.73;;
31746;SDS011;18319;48.974;8.462;2023-03-11T05:00:05;1.37;;;0.83;;
31746;SDS011;18319;48.974;8.462;2023-03-11T05:02:37;1.13;;;0.60;;
31746;SDS011;18319;48.974;8.462;2023-03-11T05:05:05;1.27;;;0.83;;
31746;SDS011;18319;48.974;8.462;2023-03-11T05:07:33;1.37;;;1.23;;
31746;SDS011;18319;48.974;8.462;2023-03-11T05:10:00;1.13;;;1.00;;
31746;SDS011;18319;48.974;8.462;2023-03-11T05:12:26;1.80;;;1.03;;
31746;SDS011;18319;48.974;8.462;2023-03-11T05:14:53;2.10;;;0.70;;
31746;SDS011;18319;48.974;8.462;2023-03-11T05:17:20;1.10;;;1.00;;
31746;SDS011;18319;48.974;8.462;2023-03-11T05:19:50;2.00;;;1.00;;
31746;SDS011;18319;48.974;8.462;2023-03-11T05:22:17;7.07;;;1.00;;
31746;SDS011;18319;48.974;8.462;2023-03-11T05:24:45;1.50;;;0.70;;
31746;SDS011;18319;48.974;8.462;2023-03-11T05:27:12;0.50;;;0.50;;
31746;SDS011;18319;48.974;8.462;2023-03-11T05:29:41;1.70;;;0.87;;
31746;SDS011;18319;48.974;8.462;2023-03-11T05:32:08;3.80;;;1.00;;
31746;SDS011;18319;48.974;8.462;2023-03-11T05:34:35;3.13;;;0.93;;
31746;SDS011;18319;48.974;8.462;2023-03-11T05:37:03;2.50;;;1.00;;
31746;SDS011;18319;48.974;8.462;2023-03-11T05:39:30;2.50;;;0.50;;
31746;SDS011;18319;48.974;8.462;2023-03-11T05:41:57;1.33;;;0.97;;
31746;SDS011;18319;48.974;8.462;2023-03-11T05:44:23;1.67;;;1.00;;
31746;SDS011;18319;48.974;8.462;2023-03-11T05:46:50;2.47;;;1.00;;
31746;SDS011;18319;48.974;8.462;2023-03-11T05:49:17;2.80;;;1.07;;
31746;SDS011;18319;48.974;8.462;2023-03-11T05:51:45;1.07;;;0.73;;
31746;SDS011;18319;48.974;8.462;2023-03-11T05:54:13;3.17;;;1.33;;
31746;SDS011;18319;48.974;8.462;2023-03-11T05:56:40;0.90;;;0.90;;
31746;SDS011;18319;48.974;8.462;2023-03-11T05:59:07;3.50;;;0.90;;
31746;SDS011;18319;48.974;8.462;2023-03-11T06:01:36;1.60;;;0.80;;
31746;SDS011;18319;48.974;8.462;2023-03-11T06:04:03;6.60;;;0.90;;
31746;SDS011;18319;48.974;8.462;2023-03-11T06:06:31;1.40;;;0.67;;
31746;SDS011;18319;48.974;8.462;2023-03-11T06:08:58;1.73;;;1.27;;
31746;SDS011;18319;48.974;8.462;2023-03-11T06:11:27;1.63;;;0.90;;
31746;SDS011;18319;48.974;8.462;2023-03-11T06:13:54;6.37;;;1.03;;
31746;SDS011;18319;48.974;8.462;2023-03-11T06:16:22;3.03;;;0.80;;
31746;SDS011;18319;48.974;8.462;2023-03-11T06:18:49;1.53;;;1.20;;
31746;SDS011;18319;48.974;8.462;2023-03-11T06:21:17;1.23;;;1.10;;
31746;SDS011;18319;48.974;8.462;2023-03-11T06:23:45;0.70;;;0.70;;
31746;SDS011;18319;48.974;8.462;2023-03-11T06:26:12;2.83;;;1.20;;
31746;SDS011;18319;48.974;8.462;2023-03-11T06:28:42;1.70;;;1.03;;
31746;SDS011;18319;48.974;8.462;2023-03-11T06:31:09;0.83;;;0.80;;
31746;SDS011;18319;48.974;8.462;2023-03-11T06:33:37;0.90;;;0.87;;
31746;SDS011;18319;48.974;8.462;2023-03-11T06:36:04;3.27;;;1.00;;
31746;SDS011;18319;48.974;8.462;2023-03-11T06:38:32;1.50;;;1.00;;
31746;SDS011;18319;48.974;8.462;2023-03-11T06:41:00;1.47;;;1.13;;
31746;SDS011;18319;48.974;8.462;2023-03-11T06:43:29;2.13;;;0.80;;
31746;SDS011;18319;48.974;8.462;2023-03-11T06:45:57;3.17;;;1.03;;
31746;SDS011;18319;48.974;8.462;2023-03-11T06:48:24;7.70;;;1.03;;
31746;SDS011;18319;48.974;8.462;2023-03-11T06:50:54;0.90;;;0.63;;
31746;SDS011;18319;48.974;8.462;2023-03-11T06:53:21;2.53;;;0.70;;
31746;SDS011;18319;48.974;8.462;2023-03-11T06:55:58;3.80;;;0.90;;
31746;SDS011;18319;48.974;8.462;2023-03-11T06:58:26;0.70;;;0.70;;
31746;SDS011;18319;48.974;8.462;2023-03-11T07:00:53;1.90;;;0.93;;
31746;SDS011;18319;48.974;8.462;2023-03-11T07:03:26;3.80;;;0.90;;
31746;SDS011;18319;48.974;8.462;2023-03-11T07:05:52;1.17;;;0.97;;
31746;SDS011;18319;48.974;8.462;2023-03-11T07:08:19;1.07;;;0.90;;
31746;SDS011;18319;48.974;8.462;2023-03-11T07:10:46;21.03;;;8.17;;
31746;SDS011;18319;48.974;8.462;2023-03-11T07:13:24;31.17;;;10.73;;
31746;SDS011;18319;48.974;8.462;2023-03-11T07:15:57;7.20;;;6.00;;
31746;SDS011;18319;48.974;8.462;2023-03-11T07:18:26;3.10;;;2.00;;
31746;SDS011;18319;48.974;8.462;2023-03-11T07:20:53;2.10;;;1.27;;
31746;SDS011;18319;48.974;8.462;2023-03-11T07:23:20;1.50;;;1.40;;
31746;SDS011;18319;48.974;8.462;2023-03-11T07:25:47;2.30;;;1.00;;
31746;SDS011;18319;48.974;8.462;2023-03-11T07:28:15;2.67;;;1.17;;
31746;SDS011;18319;48.974;8.462;2023-03-11T07:30:42;1.97;;;0.93;;
31746;SDS011;18319;48.974;8.462;2023-03-11T07:33:10;3.73;;;1.50;;
31746;SDS011;18319;48.974;8.462;2023-03-11T07:35:38;4.30;;;1.30;;
31746;SDS011;18319;48.974;8.462;2023-03-11T07:38:05;1.63;;;1.10;;
31746;SDS011;18319;48.974;8.462;2023-03-11T07:40:32;3.03;;;1.20;;
31746;SDS011;18319;48.974;8.462;2023-03-11T07:43:00;4.97;;;1.10;;
31746;SDS011;18319;48.974;8.462;2023-03-11T07:45:26;1.50;;;0.83;;
31746;SDS011;18319;48.974;8.462;2023-03-11T07:47:54;4.70;;;1.10;;
31746;SDS011;18319;48.974;8.462;2023-03-11T07:50:21;3.53;;;1.30;;
31746;SDS011;18319;48.974;8.462;2023-03-11T07:52:49;2.57;;;1.10;;
31746;SDS011;18319;48.974;8.462;2023-03-11T07:55:16;1.80;;;1.20;;
31746;SDS011;18319;48.974;8.462;2023-03-11T07:57:45;5.40;;;1.00;;
31746;SDS011;18319;48.974;8.462;2023-03-11T08:00:13;1.13;;;0.90;;
31746;SDS011;18319;48.974;8.462;2023-03-11T08:02:41;2.20;;;1.40;;
31746;SDS011;18319;48.974;8.462;2023-03-11T08:05:08;7.00;;;1.37;;
31746;SDS011;18319;48.974;8.462;2023-03-11T08:07:35;2.17;;;1.00;;
31746;SDS011;18319;48.974;8.462;2023-03-11T08:10:04;5.63;;;1.47;;
31746;SDS011;18319;48.974;8.462;2023-03-11T08:12:31;2.00;;;1.13;;
31746;SDS011;18319;48.974;8.462;2023-03-11T08:14:58;1.33;;;0.87;;
31746;SDS011;18319;48.974;8.462;2023-03-11T08:17:25;6.40;;;1.33;;
31746;SDS011;18319;48.974;8.462;2023-03-11T08:19:52;1.40;;;0.87;;
31746;SDS011;18319;48.974;8.462;2023-03-11T08:22:18;2.80;;;1.07;;
31746;SDS011;18319;48.974;8.462;2023-03-11T08:24:48;2.83;;;1.00;;
31746;SDS011;18319;48.974;8.462;2023-03-11T08:27:18;2.67;;;0.90;;
31746;SDS011;18319;48.974;8.462;2023-03-11T08:29:45;2.53;;;0.87;;
31746;SDS011;18319;48.974;8.462;2023-03-11T08:32:12;1.13;;;0.70;;
31746;SDS011;18319;48.974;8.462;2023-03-11T08:34:38;3.87;;;1.00;;
31746;SDS011;18319;48.974;8.462;2023-03-11T08:37:05;5.10;;;0.90;;
31746;SDS011;18319;48.974;8.462;2023-03-11T08:39:32;0.77;;;0.77;;
31746;SDS011;18319;48.974;8.462;2023-03-11T08:41:59;4.90;;;1.43;;
31746;SDS011;18319;48.974;8.462;2023-03-11T08:44:28;2.20;;;0.97;;
31746;SDS011;18319;48.974;8.462;2023-03-11T08:46:55;1.97;;;1.13;;
31746;SDS011;18319;48.974;8.462;2023-03-11T08:49:21;3.73;;;1.03;;
31746;SDS011;18319;48.974;8.462;2023-03-11T08:51:48;1.97;;;0.80;;
31746;SDS011;18319;48.974;8.462;2023-03-11T08:54:15;4.07;;;0.80;;
31746;SDS011;18319;48.974;8.462;2023-03-11T08:56:42;2.47;;;0.90;;
31746;SDS011;18319;48.974;8.462;2023-03-11T08:59:09;1.10;;;0.97;;
31746;SDS011;18319;48.974;8.462;2023-03-11T09:01:37;2.60;;;0.97;;
31746;SDS011;18319;48.974;8.462;2023-03-11T09:04:04;1.93;;;1.10;;
31746;SDS011;18319;48.974;8.462;2023-03-11T09:06:31;1.83;;;1.37;;
31746;SDS011;18319;48.974;8.462;2023-03-11T09:08:58;2.80;;;1.30;;
31746;SDS011;18319;48.974;8.462;2023-03-11T09:11:25;1.43;;;0.90;;
31746;SDS011;18319;48.974;8.462;2023-03-11T09:13:52;1.13;;;1.00;;
31746;SDS011;18319;48.974;8.462;2023-03-11T09:16:23;2.57;;;0.80;;
31746;SDS011;18319;48.974;8.462;2023-03-11T09:18:51;3.50;;;1.00;;
31746;SDS011;18319;48.974;8.462;2023-03-11T09:21:18;2.73;;;0.77;;
31746;SDS011;18319;48.974;8.462;2023-03-11T09:23:45;3.27;;;0.93;;
31746;SDS011;18319;48.974;8.462;2023-03-11T09:26:12;2.23;;;1.10;;
31746;SDS011;18319;48.974;8.462;2023-03-11T09:28:39;1.53;;;0.90;;
31746;SDS011;18319;48.974;8.462;2023-03-11T09:31:07;5.40;;;0.87;;
31746;SDS011;18319;48.974;8.462;2023-03-11T09:33:35;4.13;;;1.27;;
31746;SDS011;18319;48.974;8.462;2023-03-11T09:36:05;2.57;;;1.17;;
31746;SDS011;18319;48.974;8.462;2023-03-11T09:38:32;2.43;;;0.90;;
31746;SDS011;18319;48.974;8.462;2023-03-11T09:41:00;1.63;;;1.00;;
31746;SDS011;18319;48.974;8.462;2023-03-11T09:46:23;2.03;;;0.93;;
31746;SDS011;18319;48.974;8.462;2023-03-11T09:49:12;1.90;;;0.87;;
31746;SDS011;18319;48.974;8.462;2023-03-11T09:51:48;1.87;;;0.97;;
31746;SDS011;18319;48.974;8.462;2023-03-11T09:54:22;3.73;;;1.23;;
31746;SDS011;18319;48.974;8.462;2023-03-11T09:56:52;3.10;;;1.17;;
31746;SDS011;18319;48.974;8.462;2023-03-11T09:59:22;4.77;;;1.20;;
31746;SDS011;18319;48.974;8.462;2023-03-11T10:01:55;1.70;;;0.70;;
31746;SDS011;18319;48.974;8.462;2023-03-11T10:04:22;1.40;;;0.73;;
31746;SDS011;18319;48.974;8.462;2023-03-11T10:06:54;2.60;;;0.93;;
31746;SDS011;18319;48.974;8.462;2023-03-11T10:09:27;1.10;;;0.70;;
31746;SDS011;18319;48.974;8.462;2023-03-11T10:12:12;3.13;;;1.00;;
31746;SDS011;18319;48.974;8.462;2023-03-11T10:17:48;3.43;;;1.03;;
31746;SDS011;18319;48.974;8.462;2023-03-11T10:20:23;5.53;;;0.97;;
31746;SDS011;18319;48.974;8.462;2023-03-11T10:22:58;1.70;;;0.80;;
31746;SDS011;18319;48.974;8.462;2023-03-11T10:25:35;3.07;;;0.97;;
31746;SDS011;18319;48.974;8.462;2023-03-11T10:28:13;5.83;;;1.20;;
31746;SDS011;18319;48.974;8.462;2023-03-11T10:30:44;3.30;;;1.13;;
31746;SDS011;18319;48.974;8.462;2023-03-11T10:33:16;1.07;;;0.80;;
31746;SDS011;18319;48.974;8.462;2023-03-11T10:35:50;1.27;;;0.83;;
31746;SDS011;18319;48.974;8.462;2023-03-11T10:38:20;2.23;;;0.73;;
31746;SDS011;18319;48.974;8.462;2023-03-11T10:40:50;2.00;;;0.90;;
31746;SDS011;18319;48.974;8.462;2023-03-11T10:43:20;2.13;;;1.00;;
31746;SDS011;18319;48.974;8.462;2023-03-11T10:45:53;2.37;;;0.67;;
31746;SDS011;18319;48.974;8.462;2023-03-11T10:48:20;1.17;;;0.50;;
31746;SDS011;18319;48.974;8.462;2023-03-11T10:50:51;0.70;;;0.70;;
31746;SDS011;18319;48.974;8.462;2023-03-11T10:53:23;1.10;;;0.60;;
31746;SDS011;18319;48.974;8.462;2023-03-11T10:55:51;0.83;;;0.57;;
31746;SDS011;18319;48.974;8.462;2023-03-11T10:58:20;0.47;;;0.47;;
31746;SDS011;18319;48.974;8.462;2023-03-11T11:00:59;1.20;;;0.40;;
31746;SDS011;18319;48.974;8.462;2023-03-11T11:03:27;3.63;;;0.50;;
31746;SDS011;18319;48.974;8.462;2023-03-11T11:05:58;0.70;;;0.47;;
31746;SDS011;18319;48.974;8.462;2023-03-11T11:08:28;1.70;;;0.70;;
31746;SDS011;18319;48.974;8.462;2023-03-11T11:10:57;0.90;;;0.47;;
31746;SDS011;18319;48.974;8.462;2023-03-11T11:13:25;1.00;;;0.60;;
31746;SDS011;18319;48.974;8.462;2023-03-11T11:15:55;0.90;;;0.50;;
31746;SDS011;18319;48.974;8.462;2023-03-11T11:18:24;4.13;;;0.70;;
31746;SDS011;18319;48.974;8.462;2023-03-11T11:20:55;1.10;;;0.47;;
31746;SDS011;18319;48.974;8.462;2023-03-11T11:23:26;0.87;;;0.40;;
31746;SDS011;18319;48.974;8.462;2023-03-11T11:25:59;1.33;;;0.50;;
31746;SDS011;18319;48.974;8.462;2023-03-11T11:28:29;4.10;;;0.70;;
31746;SDS011;18319;48.974;8.462;2023-03-11T11:30:57;3.73;;;0.60;;
31746;SDS011;18319;48.974;8.462;2023-03-11T11:33:27;2.30;;;0.50;;
31746;SDS011;18319;48.974;8.462;2023-03-11T11:35:56;2.50;;;0.70;;
31746;SDS011;18319;48.974;8.462;2023-03-11T11:38:25;0.90;;;0.40;;
31746;SDS011;18319;48.974;8.462;2023-03-11T11:40:55;3.77;;;0.80;;
31746;SDS011;18319;48.974;8.462;2023-03-11T11:43:29;1.40;;;0.70;;
31746;SDS011;18319;48.974;8.462;2023-03-11T11:46:04;1.00;;;0.43;;
31746;SDS011;18319;48.974;8.462;2023-03-11T11:48:39;0.97;;;0.40;;
31746;SDS011;18319;48.974;8.462;2023-03-11T11:51:14;3.87;;;0.60;;
31746;SDS011;18319;48.974;8.462;2023-03-11T11:53:47;1.27;;;0.90;;
31746;SDS011;18319;48.974;8.462;2023-03-11T11:56:18;3.33;;;0.70;;
31746;SDS011;18319;48.974;8.462;2023-03-11T11:58:49;3.17;;;0.60;;
31746;SDS011;18319;48.974;8.462;2023-03-11T12:01:18;2.00;;;0.63;;
31746;SDS011;18319;48.974;8.462;2023-03-11T12:03:56;1.52;;;0.50;;
31746;SDS011;18319;48.974;8.462;2023-03-11T12:06:44;1.30;;;0.53;;
31746;SDS011;18319;48.974;8.462;2023-03-11T12:09:20;2.80;;;0.83;;
31746;SDS011;18319;48.974;8.462;2023-03-11T12:11:58;1.17;;;0.50;;
31746;SDS011;18319;48.974;8.462;2023-03-11T12:14:33;1.48;;;0.70;;
31746;SDS011;18319;48.974;8.462;2023-03-11T12:17:05;2.83;;;0.65;;
31746;SDS011;18319;48.974;8.462;2023-03-11T12:19:36;0.98;;;0.43;;
31746;SDS011;18319;48.974;8.462;2023-03-11T12:25:12;3.10;;;0.57;;
31746;SDS011;18319;48.974;8.462;2023-03-11T12:27:50;3.50;;;0.70;;
31746;SDS011;18319;48.974;8.462;2023-03-11T12:30:24;4.57;;;0.87;;
31746;SDS011;18319;48.974;8.462;2023-03-11T12:32:55;0.93;;;0.60;;
31746;SDS011;18319;48.974;8.462;2023-03-11T12:35:25;2.67;;;0.73;;
31746;SDS011;18319;48.974;8.462;2023-03-11T12:37:54;1.43;;;0.50;;
31746;SDS011;18319;48.974;8.462;2023-03-11T12:40:42;0.50;;;0.50;;
31746;SDS011;18319;48.974;8.462;2023-03-11T12:49:36;2.00;;;0.60;;
31746;SDS011;18319;48.974;8.462;2023-03-11T12:52:15;1.23;;;1.13;;
31746;SDS011;18319;48.974;8.462;2023-03-11T13:01:06;2.60;;;0.60;;
31746;SDS011;18319;48.974;8.462;2023-03-11T13:03:46;1.27;;;0.40;;
31746;SDS011;18319;48.974;8.462;2023-03-11T13:06:23;2.05;;;0.77;;
31746;SDS011;18319;48.974;8.462;2023-03-11T13:09:02;1.33;;;0.60;;
31746;SDS011;18319;48.974;8.462;2023-03-11T13:11:38;1.90;;;0.50;;
31746;SDS011;18319;48.974;8.462;2023-03-11T13:16:54;2.22;;;0.77;;
31746;SDS011;18319;48.974;8.462;2023-03-11T13:25:37;2.80;;;0.70;;
31746;SDS011;18319;48.974;8.462;2023-03-11T13:28:20;1.70;;;0.57;;
31746;SDS011;18319;48.974;8.462;2023-03-11T13:30:55;2.40;;;0.80;;
31746;SDS011;18319;48.974;8.462;2023-03-11T13:33:36;1.77;;;0.63;;
31746;SDS011;18319;48.974;8.462;2023-03-11T13:36:15;7.07;;;0.80;;
31746;SDS011;18319;48.974;8.462;2023-03-11T13:38:55;1.90;;;0.80;;
31746;SDS011;18319;48.974;8.462;2023-03-11T13:41:34;1.83;;;1.17;;
31746;SDS011;18319;48.974;8.462;2023-03-11T13:44:08;4.10;;;0.60;;
31746;SDS011;18319;48.974;8.462;2023-03-11T13:46:39;1.00;;;0.53;;
31746;SDS011;18319;48.974;8.462;2023-03-11T13:49:11;1.60;;;0.60;;
31746;SDS011;18319;48.974;8.462;2023-03-11T13:51:48;2.77;;;0.47;;
31746;SDS011;18319;48.974;8.462;2023-03-11T13:54:25;1.17;;;0.40;;
31746;SDS011;18319;48.974;8.462;2023-03-11T13:57:01;1.20;;;0.40;;
31746;SDS011;18319;48.974;8.462;2023-03-11T13:59:29;1.53;;;0.83;;
31746;SDS011;18319;48.974;8.462;2023-03-11T14:01:58;2.60;;;0.77;;
31746;SDS011;18319;48.974;8.462;2023-03-11T14:04:27;2.63;;;0.80;;
31746;SDS011;18319;48.974;8.462;2023-03-11T14:06:56;1.23;;;0.60;;
31746;SDS011;18319;48.974;8.462;2023-03-11T14:09:24;1.30;;;0.80;;
31746;SDS011;18319;48.974;8.462;2023-03-11T14:11:53;0.90;;;0.60;;
31746;SDS011;18319;48.974;8.462;2023-03-11T14:14:40;1.03;;;0.50;;
31746;SDS011;18319;48.974;8.462;2023-03-11T14:17:13;0.73;;;0.53;;
31746;SDS011;18319;48.974;8.462;2023-03-11T14:19:41;0.87;;;0.40;;
31746;SDS011;18319;48.974;8.462;2023-03-11T14:22:09;1.17;;;0.50;;
31746;SDS011;18319;48.974;8.462;2023-03-11T14:24:36;1.73;;;1.03;;
31746;SDS011;18319;48.974;8.462;2023-03-11T14:27:06;1.80;;;0.67;;
31746;SDS011;18319;48.974;8.462;2023-03-11T14:29:37;1.83;;;0.57;;
31746;SDS011;18319;48.974;8.462;2023-03-11T14:32:15;0.77;;;0.47;;
31746;SDS011;18319;48.974;8.462;2023-03-11T14:34:50;0.60;;;0.60;;
31746;SDS011;18319;48.974;8.462;2023-03-11T14:37:22;3.30;;;0.87;;
31746;SDS011;18319;48.974;8.462;2023-03-11T14:39:50;1.40;;;0.60;;
31746;SDS011;18319;48.974;8.462;2023-03-11T14:42:19;0.87;;;0.70;;
31746;SDS011;18319;48.974;8.462;2023-03-11T14:44:54;3.07;;;0.80;;
31746;SDS011;18319;48.974;8.462;2023-03-11T14:47:30;7.87;;;7.47;;
31746;SDS011;18319;48.974;8.462;2023-03-11T14:50:00;3.20;;;2.73;;
31746;SDS011;18319;48.974;8.462;2023-03-11T14:52:31;5.27;;;0.90;;
31746;SDS011;18319;48.974;8.462;2023-03-11T14:55:01;1.57;;;0.83;;
31746;SDS011;18319;48.974;8.462;2023-03-11T14:57:34;3.07;;;0.53;;
31746;SDS011;18319;48.974;8.462;2023-03-11T15:00:09;0.40;;;0.40;;
31746;SDS011;18319;48.974;8.462;2023-03-11T15:02:42;0.90;;;0.53;;
31746;SDS011;18319;48.974;8.462;2023-03-11T15:05:21;2.00;;;0.60;;
31746;SDS011;18319;48.974;8.462;2023-03-11T15:07:55;0.57;;;0.57;;
31746;SDS011;18319;48.974;8.462;2023-03-11T15:10:24;1.90;;;0.47;;
31746;SDS011;18319;48.974;8.462;2023-03-11T15:12:51;1.70;;;0.43;;
31746;SDS011;18319;48.974;8.462;2023-03-11T15:15:31;0.63;;;0.47;;
31746;SDS011;18319;48.974;8.462;2023-03-11T15:17:59;1.17;;;0.60;;
31746;SDS011;18319;48.974;8.462;2023-03-11T15:20:27;1.73;;;0.50;;
31746;SDS011;18319;48.974;8.462;2023-03-11T15:22:57;4.37;;;0.60;;
31746;SDS011;18319;48.974;8.462;2023-03-11T15:25:26;1.27;;;0.50;;
31746;SDS011;18319;48.974;8.462;2023-03-11T15:27:54;1.23;;;0.50;;
31746;SDS011;18319;48.974;8.462;2023-03-11T15:30:22;1.10;;;0.47;;
31746;SDS011;18319;48.974;8.462;2023-03-11T15:32:51;2.20;;;0.60;;
31746;SDS011;18319;48.974;8.462;2023-03-11T15:35:19;1.20;;;0.73;;